createdAt,value
2023-03-31T00:00:32.169Z,10.02
2023-03-31T00:01:37.433Z,10.04
2023-03-31T00:02:29.542Z,10.07
2023-03-31T00:03:21.910Z,10.03
2023-03-31T00:04:14.572Z,10.05
2023-03-31T00:05:06.653Z,10.00
2023-03-31T00:05:58.913Z,9.99
2023-03-31T00:06:51.551Z,9.99
2023-03-31T00:07:43.742Z,10.01
2023-03-31T00:08:35.863Z,10.01
2023-03-31T00:09:11.576Z,9.99
2023-03-31T00:10:17.109Z,9.98
2023-03-31T00:11:10.583Z,9.99
2023-03-31T00:12:02.578Z,9.98
2023-03-31T00:12:54.551Z,9.93
2023-03-31T00:13:46.391Z,9.87
2023-03-31T00:14:31.197Z,9.84
2023-03-31T00:15:23.054Z,9.80
2023-03-31T00:16:16.040Z,9.78
2023-03-31T00:17:08.086Z,9.72
2023-03-31T00:17:59.957Z,9.66
2023-03-31T00:18:51.758Z,9.62
2023-03-31T00:19:43.667Z,9.59
2023-03-31T00:20:35.472Z,9.54
2023-03-31T00:21:27.394Z,9.52
2023-03-31T00:22:20.563Z,9.50
2023-03-31T00:23:12.384Z,9.49
2023-03-31T00:23:53.076Z,9.47
2023-03-31T00:24:45.056Z,9.45
2023-03-31T00:25:37.097Z,9.42
2023-03-31T00:26:29.130Z,9.35
2023-03-31T00:27:21.143Z,9.37
2023-03-31T00:28:13.002Z,9.36
2023-03-31T00:29:04.940Z,9.33
2023-03-31T00:29:56.833Z,9.37
2023-03-31T00:30:48.665Z,9.38
2023-03-31T00:31:40.599Z,9.40
2023-03-31T00:32:32.484Z,9.41
2023-03-31T00:33:24.426Z,9.37
2023-03-31T00:34:16.294Z,9.36
2023-03-31T00:35:08.076Z,9.35
2023-03-31T00:36:00.017Z,9.37
2023-03-31T00:36:51.949Z,9.36
2023-03-31T00:37:32.498Z,9.33
2023-03-31T00:38:24.326Z,9.33
2023-03-31T00:39:16.049Z,9.34
2023-03-31T00:40:07.860Z,9.33
2023-03-31T00:40:59.551Z,9.33
2023-03-31T00:41:51.392Z,9.33
2023-03-31T00:42:43.174Z,9.33
2023-03-31T00:43:35.099Z,9.32
2023-03-31T00:44:26.924Z,9.31
2023-03-31T00:45:18.917Z,9.31
2023-03-31T00:46:10.924Z,9.28
2023-03-31T00:47:02.827Z,9.27
2023-03-31T00:47:54.771Z,9.29
2023-03-31T00:48:46.651Z,9.31
2023-03-31T00:49:38.418Z,9.32
2023-03-31T00:50:30.171Z,9.33
2023-03-31T00:51:21.995Z,9.32
2023-03-31T00:52:13.759Z,9.33
2023-03-31T00:53:05.430Z,9.34
2023-03-31T00:53:57.341Z,9.34
2023-03-31T00:54:49.227Z,9.35
2023-03-31T00:55:41.268Z,9.34
2023-03-31T00:56:33.116Z,9.32
2023-03-31T00:57:25.125Z,9.33
2023-03-31T00:58:17.175Z,9.33
2023-03-31T00:59:09.066Z,9.33
2023-03-31T01:00:00.878Z,9.34
2023-03-31T01:00:52.897Z,9.35
2023-03-31T01:01:45.022Z,9.35
2023-03-31T01:02:34.233Z,9.36
2023-03-31T01:03:26.200Z,9.36
2023-03-31T01:04:18.012Z,9.37
2023-03-31T01:05:09.926Z,9.38
2023-03-31T01:06:01.776Z,9.40
2023-03-31T01:06:53.718Z,9.41
2023-03-31T01:07:39.800Z,9.42
2023-03-31T01:08:31.573Z,9.44
2023-03-31T01:09:23.504Z,9.44
2023-03-31T01:10:15.296Z,9.45
2023-03-31T01:11:07.064Z,9.46
2023-03-31T01:11:59.039Z,9.47
2023-03-31T01:12:50.965Z,9.48
2023-03-31T01:13:39.486Z,9.49
2023-03-31T01:14:31.306Z,9.50
2023-03-31T01:15:23.406Z,9.51
2023-03-31T01:16:15.262Z,9.52
2023-03-31T01:17:07.226Z,9.52
2023-03-31T01:17:59.269Z,9.54
2023-03-31T01:18:51.181Z,9.56
2023-03-31T01:19:39.888Z,9.57
2023-03-31T01:20:14.969Z,9.58
2023-03-31T01:21:06.854Z,9.58
2023-03-31T01:21:58.794Z,9.59
2023-03-31T01:22:50.614Z,9.59
2023-03-31T01:23:42.522Z,9.60
2023-03-31T01:24:34.556Z,9.59
2023-03-31T01:25:26.364Z,9.59
2023-03-31T01:26:00.933Z,9.59
2023-03-31T01:26:41.651Z,9.59
2023-03-31T01:27:22.232Z,9.57
2023-03-31T01:28:16.284Z,9.58
2023-03-31T01:29:08.285Z,9.57
2023-03-31T01:30:00.190Z,9.55
2023-03-31T01:30:52.162Z,9.54
2023-03-31T01:31:37.184Z,9.53
2023-03-31T01:32:29.251Z,9.53
2023-03-31T01:33:21.147Z,9.54
2023-03-31T01:34:13.053Z,9.55
2023-03-31T01:35:04.992Z,9.56
2023-03-31T01:35:57.031Z,9.58
2023-03-31T01:36:48.739Z,9.60
2023-03-31T01:37:40.538Z,9.62
2023-03-31T01:38:21.209Z,9.63
2023-03-31T01:39:06.857Z,9.62
2023-03-31T01:39:58.701Z,9.63
2023-03-31T01:40:50.373Z,9.64
2023-03-31T01:41:42.205Z,9.65
2023-03-31T01:42:34.080Z,9.65
2023-03-31T01:43:25.964Z,9.65
2023-03-31T01:44:17.836Z,9.65
2023-03-31T01:45:09.703Z,9.65
2023-03-31T01:46:01.518Z,9.66
2023-03-31T01:46:52.252Z,9.68
2023-03-31T01:47:44.149Z,9.68
2023-03-31T01:48:35.834Z,9.71
2023-03-31T01:49:27.606Z,9.71
2023-03-31T01:50:19.421Z,9.72
2023-03-31T01:51:11.207Z,9.72
2023-03-31T01:52:03.021Z,9.73
2023-03-31T01:52:55.092Z,9.74
2023-03-31T01:53:46.986Z,9.74
2023-03-31T01:54:38.861Z,9.74
2023-03-31T01:55:30.801Z,9.75
2023-03-31T01:56:22.633Z,9.75
2023-03-31T01:57:15.595Z,9.78
2023-03-31T01:57:56.123Z,9.80
2023-03-31T01:58:37.436Z,9.81
2023-03-31T01:59:29.269Z,9.85
2023-03-31T02:00:21.062Z,9.89
2023-03-31T02:01:12.881Z,9.91
2023-03-31T02:02:04.613Z,9.93
2023-03-31T02:02:51.604Z,9.94
2023-03-31T02:03:32.433Z,9.95
2023-03-31T02:04:23.952Z,9.92
2023-03-31T02:05:15.846Z,9.90
2023-03-31T02:06:08.018Z,9.88
2023-03-31T02:06:59.988Z,9.85
2023-03-31T02:07:51.838Z,9.84
2023-03-31T02:08:43.724Z,9.82
2023-03-31T02:09:35.636Z,9.79
2023-03-31T02:10:20.247Z,9.82
2023-03-31T02:11:12.139Z,9.87
2023-03-31T02:12:04.020Z,9.90
2023-03-31T02:12:55.882Z,9.94
2023-03-31T02:13:47.824Z,9.97
2023-03-31T02:14:39.605Z,10.01
2023-03-31T02:15:31.680Z,10.05
2023-03-31T02:16:23.860Z,10.09
2023-03-31T02:17:15.631Z,10.14
2023-03-31T02:18:07.462Z,10.16
2023-03-31T02:18:59.367Z,10.17
2023-03-31T02:19:51.210Z,10.20
2023-03-31T02:20:43.036Z,10.22
2023-03-31T02:21:34.832Z,10.22
2023-03-31T02:22:26.623Z,10.22
2023-03-31T02:23:18.481Z,10.23
2023-03-31T02:24:10.364Z,10.25
2023-03-31T02:25:02.259Z,10.26
2023-03-31T02:25:54.180Z,10.25
2023-03-31T02:26:46.003Z,10.24
2023-03-31T02:27:37.681Z,10.24
2023-03-31T02:28:29.694Z,10.22
2023-03-31T02:29:21.575Z,10.24
2023-03-31T02:30:13.451Z,10.27
2023-03-31T02:31:05.500Z,10.28
2023-03-31T02:31:57.450Z,10.28
2023-03-31T02:32:49.376Z,10.31
2023-03-31T02:33:41.411Z,10.34
2023-03-31T02:34:33.292Z,10.35
2023-03-31T02:35:25.233Z,10.35
2023-03-31T02:36:17.222Z,10.34
2023-03-31T02:36:54.383Z,10.33
2023-03-31T02:37:46.156Z,10.32
2023-03-31T02:38:38.201Z,10.32
2023-03-31T02:39:29.959Z,10.33
2023-03-31T02:40:21.888Z,10.36
2023-03-31T02:41:13.770Z,10.35
2023-03-31T02:42:05.673Z,10.33
2023-03-31T02:42:57.492Z,10.35
2023-03-31T02:43:49.362Z,10.37
2023-03-31T02:44:41.446Z,10.38
2023-03-31T02:45:33.238Z,10.39
2023-03-31T02:46:25.278Z,10.39
2023-03-31T02:47:17.236Z,10.40
2023-03-31T02:48:01.737Z,10.42
2023-03-31T02:48:53.691Z,10.44
2023-03-31T02:49:45.605Z,10.45
2023-03-31T02:50:37.478Z,10.43
2023-03-31T02:51:30.484Z,10.40
2023-03-31T02:52:22.477Z,10.42
2023-03-31T02:53:14.205Z,10.43
2023-03-31T02:54:05.948Z,10.45
2023-03-31T02:54:57.809Z,10.46
2023-03-31T02:55:38.310Z,10.45
2023-03-31T02:56:30.254Z,10.47
2023-03-31T02:57:22.153Z,10.47
2023-03-31T02:58:14.094Z,10.48
2023-03-31T02:59:05.910Z,10.46
2023-03-31T02:59:58.522Z,10.48
2023-03-31T03:00:50.296Z,10.47
2023-03-31T03:01:42.343Z,10.48
2023-03-31T03:02:34.240Z,10.46
2023-03-31T03:03:26.187Z,10.46
2023-03-31T03:04:18.110Z,10.47
2023-03-31T03:04:59.095Z,10.49
2023-03-31T03:05:50.989Z,10.48
2023-03-31T03:06:42.923Z,10.49
2023-03-31T03:07:34.814Z,10.50
2023-03-31T03:08:26.752Z,10.52
2023-03-31T03:09:18.571Z,10.54
2023-03-31T03:10:10.459Z,10.54
2023-03-31T03:11:02.303Z,10.55
2023-03-31T03:11:46.744Z,10.57
2023-03-31T03:12:38.572Z,10.56
2023-03-31T03:13:30.371Z,10.56
2023-03-31T03:14:22.098Z,10.56
2023-03-31T03:15:13.924Z,10.56
2023-03-31T03:16:06.218Z,10.57
2023-03-31T03:16:58.276Z,10.55
2023-03-31T03:17:50.172Z,10.55
2023-03-31T03:18:42.151Z,10.56
2023-03-31T03:19:34.132Z,10.56
2023-03-31T03:20:32.052Z,10.57
2023-03-31T03:21:23.997Z,10.59
2023-03-31T03:22:15.846Z,10.56
2023-03-31T03:23:07.689Z,10.58
2023-03-31T03:23:59.575Z,10.58
2023-03-31T03:24:51.510Z,10.58
2023-03-31T03:25:43.359Z,10.60
2023-03-31T03:26:35.321Z,10.60
2023-03-31T03:27:27.092Z,10.59
2023-03-31T03:28:19.049Z,10.60
2023-03-31T03:28:53.724Z,10.58
2023-03-31T03:29:45.693Z,10.57
2023-03-31T03:30:26.678Z,10.57
2023-03-31T03:31:18.685Z,10.57
2023-03-31T03:32:10.607Z,10.55
2023-03-31T03:32:51.401Z,10.51
2023-03-31T03:33:43.240Z,10.51
2023-03-31T03:34:35.091Z,10.51
2023-03-31T03:35:06.742Z,10.51
2023-03-31T03:35:58.617Z,10.51
2023-03-31T03:36:50.501Z,10.48
2023-03-31T03:37:42.574Z,10.48
2023-03-31T03:38:34.508Z,10.49
2023-03-31T03:39:26.243Z,10.50
2023-03-31T03:40:18.373Z,10.51
2023-03-31T03:41:10.357Z,10.51
2023-03-31T03:42:02.306Z,10.52
2023-03-31T03:42:54.188Z,10.51
2023-03-31T03:43:46.075Z,10.51
2023-03-31T03:44:30.604Z,10.52
2023-03-31T03:45:22.544Z,10.49
2023-03-31T03:46:13.353Z,10.47
2023-03-31T03:47:05.354Z,10.48
2023-03-31T03:47:40.171Z,10.50
2023-03-31T03:48:32.145Z,10.50
2023-03-31T03:49:23.981Z,10.50
2023-03-31T03:50:16.529Z,10.50
2023-03-31T03:51:01.484Z,10.50
2023-03-31T03:51:53.367Z,10.50
2023-03-31T03:52:45.344Z,10.49
2023-03-31T03:53:37.349Z,10.49
2023-03-31T03:54:29.306Z,10.50
2023-03-31T03:55:21.285Z,10.49
2023-03-31T03:56:03.884Z,10.50
2023-03-31T03:56:56.081Z,10.50
2023-03-31T03:57:36.598Z,10.49
2023-03-31T03:58:28.575Z,10.48
2023-03-31T03:59:20.508Z,10.50
2023-03-31T04:00:12.222Z,10.51
2023-03-31T04:01:04.140Z,10.52
2023-03-31T04:01:55.963Z,10.51
2023-03-31T04:02:47.662Z,10.51
2023-03-31T04:03:39.686Z,10.53
2023-03-31T04:04:31.600Z,10.54
2023-03-31T04:05:23.505Z,10.54
2023-03-31T04:06:15.328Z,10.54
2023-03-31T04:07:07.276Z,10.55
2023-03-31T04:07:59.177Z,10.55
2023-03-31T04:08:51.039Z,10.56
2023-03-31T04:09:36.057Z,10.56
2023-03-31T04:10:28.042Z,10.56
2023-03-31T04:11:19.985Z,10.57
2023-03-31T04:12:11.954Z,10.57
2023-03-31T04:13:03.931Z,10.59
2023-03-31T04:13:44.245Z,10.59
2023-03-31T04:14:29.003Z,10.57
2023-03-31T04:15:20.883Z,10.56
2023-03-31T04:16:12.831Z,10.55
2023-03-31T04:17:04.702Z,10.55
2023-03-31T04:17:56.734Z,10.56
2023-03-31T04:18:33.929Z,10.56
2023-03-31T04:19:25.978Z,10.56
2023-03-31T04:20:18.090Z,10.56
2023-03-31T04:21:10.078Z,10.57
2023-03-31T04:21:54.849Z,10.56
2023-03-31T04:22:46.818Z,10.58
2023-03-31T04:23:33.042Z,10.60
2023-03-31T04:24:24.878Z,10.59
2023-03-31T04:25:16.916Z,10.59
2023-03-31T04:26:08.718Z,10.59
2023-03-31T04:26:46.450Z,10.58
2023-03-31T04:27:38.307Z,10.59
2023-03-31T04:28:30.130Z,10.60
2023-03-31T04:29:21.916Z,10.60
2023-03-31T04:30:16.837Z,10.59
2023-03-31T04:31:01.270Z,10.59
2023-03-31T04:31:53.186Z,10.59
2023-03-31T04:32:45.130Z,10.58
2023-03-31T04:33:37.186Z,10.58
2023-03-31T04:34:29.132Z,10.59
2023-03-31T04:35:21.014Z,10.59
2023-03-31T04:36:12.964Z,10.59
2023-03-31T04:37:04.911Z,10.60
2023-03-31T04:37:56.963Z,10.61
2023-03-31T04:38:48.891Z,10.63
2023-03-31T04:39:40.821Z,10.64
2023-03-31T04:40:15.932Z,10.65
2023-03-31T04:41:07.949Z,10.65
2023-03-31T04:41:59.985Z,10.67
2023-03-31T04:42:51.949Z,10.69
2023-03-31T04:43:43.996Z,10.70
2023-03-31T04:44:35.916Z,10.70
2023-03-31T04:45:27.997Z,10.69
2023-03-31T04:46:19.993Z,10.70
2023-03-31T04:47:12.263Z,10.70
2023-03-31T04:48:04.178Z,10.69
2023-03-31T04:48:55.991Z,10.69
2023-03-31T04:49:47.777Z,10.69
2023-03-31T04:50:39.722Z,10.69
2023-03-31T04:51:31.635Z,10.68
2023-03-31T04:52:23.571Z,10.69
2023-03-31T04:53:15.333Z,10.69
2023-03-31T04:53:56.440Z,10.69
2023-03-31T04:54:48.551Z,10.70
2023-03-31T04:55:40.487Z,10.71
2023-03-31T04:56:32.372Z,10.70
2023-03-31T04:57:24.262Z,10.71
2023-03-31T04:58:16.134Z,10.71
2023-03-31T04:59:07.916Z,10.70
2023-03-31T04:59:59.899Z,10.72
2023-03-31T05:00:51.789Z,10.75
2023-03-31T05:01:36.636Z,10.76
2023-03-31T05:02:28.656Z,10.76
2023-03-31T05:03:20.787Z,10.77
2023-03-31T05:04:12.892Z,10.78
2023-03-31T05:05:04.934Z,10.79
2023-03-31T05:05:56.774Z,10.79
2023-03-31T05:06:48.617Z,10.80
2023-03-31T05:07:40.560Z,10.80
2023-03-31T05:08:32.432Z,10.81
2023-03-31T05:09:24.359Z,10.82
2023-03-31T05:10:16.328Z,10.82
2023-03-31T05:11:01.269Z,10.82
2023-03-31T05:11:53.222Z,10.84
2023-03-31T05:12:45.088Z,10.85
2023-03-31T05:13:36.983Z,10.86
2023-03-31T05:14:28.961Z,10.87
2023-03-31T05:15:20.867Z,10.86
2023-03-31T05:16:12.785Z,10.88
2023-03-31T05:17:04.759Z,10.88
2023-03-31T05:17:56.814Z,10.88
2023-03-31T05:18:41.425Z,10.89
2023-03-31T05:19:33.350Z,10.90
2023-03-31T05:20:23.121Z,10.92
2023-03-31T05:21:14.893Z,10.91
2023-03-31T05:22:06.853Z,10.91
2023-03-31T05:22:54.644Z,10.91
2023-03-31T05:23:46.524Z,10.91
2023-03-31T05:24:38.454Z,10.93
2023-03-31T05:25:30.320Z,10.95
2023-03-31T05:26:22.303Z,10.96
2023-03-31T05:27:14.182Z,10.97
2023-03-31T05:27:56.179Z,10.96
2023-03-31T05:28:48.295Z,10.95
2023-03-31T05:29:32.683Z,10.96
2023-03-31T05:30:24.505Z,10.96
2023-03-31T05:31:16.316Z,10.97
2023-03-31T05:32:08.236Z,10.98
2023-03-31T05:33:00.269Z,10.98
2023-03-31T05:33:52.221Z,10.97
2023-03-31T05:34:32.666Z,10.97
2023-03-31T05:35:24.567Z,10.98
2023-03-31T05:36:16.401Z,10.99
2023-03-31T05:37:08.040Z,10.98
2023-03-31T05:37:49.893Z,11.01
2023-03-31T05:38:41.828Z,11.02
2023-03-31T05:39:32.497Z,11.03
2023-03-31T05:40:27.230Z,11.03
2023-03-31T05:41:12.778Z,11.03
2023-03-31T05:42:04.573Z,11.04
2023-03-31T05:42:56.610Z,11.05
2023-03-31T05:43:48.544Z,11.06
2023-03-31T05:44:40.463Z,11.08
2023-03-31T05:45:32.272Z,11.10
2023-03-31T05:46:24.446Z,11.10
2023-03-31T05:47:16.551Z,11.10
2023-03-31T05:48:01.137Z,11.12
2023-03-31T05:48:52.930Z,11.13
2023-03-31T05:49:45.098Z,11.13
2023-03-31T05:50:36.908Z,11.14
2023-03-31T05:51:28.736Z,11.15
2023-03-31T05:52:20.478Z,11.15
2023-03-31T05:53:12.280Z,11.15
2023-03-31T05:54:04.101Z,11.17
2023-03-31T05:54:41.505Z,11.18
2023-03-31T05:55:33.671Z,11.20
2023-03-31T05:56:25.537Z,11.21
2023-03-31T05:57:17.502Z,11.22
2023-03-31T05:58:09.276Z,11.22
2023-03-31T05:59:01.154Z,11.23
2023-03-31T05:59:53.085Z,11.25
2023-03-31T06:00:45.087Z,11.26
2023-03-31T06:01:40.189Z,11.26
2023-03-31T06:02:32.145Z,11.27
2023-03-31T06:03:24.159Z,11.27
2023-03-31T06:04:16.149Z,11.26
2023-03-31T06:05:07.924Z,11.27
2023-03-31T06:05:59.821Z,11.26
2023-03-31T06:06:51.724Z,11.27
2023-03-31T06:07:43.658Z,11.28
2023-03-31T06:08:35.488Z,11.29
2023-03-31T06:09:27.279Z,11.28
2023-03-31T06:10:11.900Z,11.28
2023-03-31T06:10:52.306Z,11.29
2023-03-31T06:11:44.278Z,11.30
2023-03-31T06:12:25.947Z,11.32
2023-03-31T06:13:17.596Z,11.33
2023-03-31T06:14:09.616Z,11.32
2023-03-31T06:15:01.395Z,11.33
2023-03-31T06:15:53.147Z,11.35
2023-03-31T06:16:35.307Z,11.35
2023-03-31T06:17:27.257Z,11.35
2023-03-31T06:18:19.104Z,11.35
2023-03-31T06:19:10.873Z,11.35
2023-03-31T06:20:09.916Z,11.34
2023-03-31T06:21:08.343Z,11.33
2023-03-31T06:22:00.659Z,11.32
2023-03-31T06:22:52.704Z,11.32
2023-03-31T06:23:44.566Z,11.31
2023-03-31T06:24:36.502Z,11.32
2023-03-31T06:25:32.402Z,11.32
2023-03-31T06:26:29.270Z,11.33
2023-03-31T06:27:21.072Z,11.32
2023-03-31T06:28:12.945Z,11.33
2023-03-31T06:29:04.824Z,11.34
2023-03-31T06:29:56.704Z,11.33
2023-03-31T06:30:48.584Z,11.34
2023-03-31T06:31:40.552Z,11.35
2023-03-31T06:32:32.707Z,11.37
2023-03-31T06:33:24.734Z,11.38
2023-03-31T06:34:17.826Z,11.39
2023-03-31T06:35:11.448Z,11.42
2023-03-31T06:36:03.358Z,11.44
2023-03-31T06:36:55.304Z,11.46
2023-03-31T06:37:47.184Z,11.48
2023-03-31T06:49:08.887Z,11.77
2023-03-31T06:49:42.282Z,11.77
2023-03-31T06:50:15.975Z,11.79
2023-03-31T06:50:50.225Z,11.81
2023-03-31T06:51:23.649Z,11.83
2023-03-31T06:51:57.124Z,11.84
2023-03-31T06:52:31.830Z,11.86
2023-03-31T06:53:06.189Z,11.89
2023-03-31T06:53:39.431Z,11.90
2023-03-31T06:54:12.839Z,11.91
2023-03-31T06:54:46.306Z,11.92
2023-03-31T06:55:19.659Z,11.94
2023-03-31T06:55:52.859Z,11.96
2023-03-31T06:56:27.688Z,11.99
2023-03-31T06:57:01.092Z,12.02
2023-03-31T06:57:34.696Z,12.05
2023-03-31T06:58:08.638Z,12.09
2023-03-31T06:58:42.126Z,12.12
2023-03-31T06:59:15.787Z,12.15
2023-03-31T06:59:49.202Z,12.18
2023-03-31T07:00:23.348Z,12.21
2023-03-31T07:00:56.772Z,12.24
2023-03-31T07:01:31.854Z,12.27
2023-03-31T07:02:05.537Z,12.30
2023-03-31T07:02:39.176Z,12.33
2023-03-31T07:03:13.905Z,12.36
2023-03-31T07:03:47.343Z,12.38
2023-03-31T07:04:21.685Z,12.41
2023-03-31T07:04:55.179Z,12.44
2023-03-31T07:05:29.103Z,12.45
2023-03-31T07:06:02.460Z,12.48
2023-03-31T07:06:36.246Z,12.51
2023-03-31T07:07:10.393Z,12.54
2023-03-31T07:07:45.792Z,12.56
2023-03-31T07:08:20.076Z,12.59
2023-03-31T07:08:53.303Z,12.61
2023-03-31T07:09:26.544Z,12.65
2023-03-31T07:10:00.152Z,12.69
2023-03-31T07:10:33.518Z,12.72
2023-03-31T07:11:07.214Z,12.75
2023-03-31T07:11:40.795Z,12.79
2023-03-31T07:12:14.293Z,12.83
2023-03-31T07:12:47.583Z,12.86
2023-03-31T07:13:21.071Z,12.92
2023-03-31T07:13:54.548Z,12.96
2023-03-31T07:14:27.925Z,13.00
2023-03-31T07:15:01.497Z,13.02
2023-03-31T07:15:34.962Z,13.06
2023-03-31T07:16:10.271Z,13.09
2023-03-31T07:16:43.566Z,13.10
2023-03-31T07:17:16.987Z,13.14
2023-03-31T07:17:54.305Z,13.16
2023-03-31T07:18:34.672Z,13.19
2023-03-31T07:19:11.314Z,13.21
2023-03-31T07:19:48.536Z,13.23
2023-03-31T07:20:21.924Z,13.25
2023-03-31T07:20:55.350Z,13.27
2023-03-31T07:21:28.794Z,13.30
2023-03-31T07:22:02.097Z,13.31
2023-03-31T07:22:35.463Z,13.31
2023-03-31T07:23:08.953Z,13.33
2023-03-31T07:23:42.428Z,13.33
2023-03-31T07:24:15.805Z,13.36
2023-03-31T07:24:49.173Z,13.36
2023-03-31T07:25:23.402Z,13.38
2023-03-31T07:25:56.896Z,13.40
2023-03-31T07:26:30.363Z,13.42
2023-03-31T07:27:03.523Z,13.43
2023-03-31T07:27:37.815Z,13.45
2023-03-31T07:28:12.057Z,13.46
2023-03-31T07:28:45.359Z,13.49
2023-03-31T07:29:18.896Z,13.52
2023-03-31T07:29:52.079Z,13.54
2023-03-31T07:30:25.496Z,13.54
2023-03-31T07:30:58.988Z,13.56
2023-03-31T07:31:32.784Z,13.57
2023-03-31T07:32:06.261Z,13.57
2023-03-31T07:32:41.525Z,13.57
2023-03-31T07:33:14.838Z,13.58
2023-03-31T07:33:48.720Z,13.57
2023-03-31T07:34:21.911Z,13.58
2023-03-31T07:34:55.409Z,13.58
2023-03-31T07:35:31.398Z,13.59
2023-03-31T07:36:12.723Z,13.59
2023-03-31T07:36:47.494Z,13.60
2023-03-31T07:37:21.860Z,13.61
2023-03-31T07:37:55.298Z,13.62
2023-03-31T07:38:28.442Z,13.62
2023-03-31T07:39:01.787Z,13.63
2023-03-31T07:39:37.244Z,13.64
2023-03-31T07:40:17.097Z,13.64
2023-03-31T07:40:58.694Z,13.64
2023-03-31T07:41:39.378Z,13.63
2023-03-31T07:42:12.785Z,13.64
2023-03-31T07:42:49.111Z,13.66
2023-03-31T07:43:22.899Z,13.66
2023-03-31T07:43:56.515Z,13.66
2023-03-31T07:44:29.968Z,13.67
2023-03-31T07:45:06.517Z,13.67
2023-03-31T07:45:40.874Z,13.67
2023-03-31T07:46:17.052Z,13.68
2023-03-31T07:46:50.367Z,13.68
2023-03-31T07:47:24.469Z,13.69
2023-03-31T07:47:58.079Z,13.71
2023-03-31T07:48:31.649Z,13.71
2023-03-31T07:49:04.917Z,13.73
2023-03-31T07:49:38.531Z,13.74
2023-03-31T07:50:13.372Z,13.76
2023-03-31T07:50:46.912Z,13.77
2023-03-31T07:51:23.071Z,13.78
2023-03-31T07:51:56.352Z,13.79
2023-03-31T07:52:29.569Z,13.80
2023-03-31T07:53:02.902Z,13.80
2023-03-31T07:53:37.000Z,13.80
2023-03-31T07:54:10.288Z,13.81
2023-03-31T07:54:43.482Z,13.81
2023-03-31T07:55:17.091Z,13.80
2023-03-31T07:55:50.742Z,13.80
2023-03-31T07:56:26.396Z,13.79
2023-03-31T07:57:02.170Z,13.78
2023-03-31T07:57:36.849Z,13.77
2023-03-31T07:58:12.152Z,13.77
2023-03-31T07:58:46.566Z,13.78
2023-03-31T07:59:20.705Z,13.78
2023-03-31T07:59:54.051Z,13.78
2023-03-31T08:00:27.841Z,13.78
2023-03-31T08:01:01.499Z,13.77
2023-03-31T08:01:35.143Z,13.77
2023-03-31T08:02:15.251Z,13.76
2023-03-31T08:02:49.196Z,13.76
2023-03-31T08:03:22.740Z,13.76
2023-03-31T08:03:56.288Z,13.76
2023-03-31T08:04:29.741Z,13.77
2023-03-31T08:05:03.926Z,13.77
2023-03-31T08:05:37.260Z,13.78
2023-03-31T08:06:10.802Z,13.78
2023-03-31T08:06:44.371Z,13.78
2023-03-31T08:07:18.161Z,13.79
2023-03-31T08:07:51.644Z,13.79
2023-03-31T08:08:25.024Z,13.79
2023-03-31T08:08:59.227Z,13.80
2023-03-31T08:09:32.416Z,13.81
2023-03-31T08:10:08.468Z,13.81
2023-03-31T08:10:41.625Z,13.81
2023-03-31T08:11:15.109Z,13.81
2023-03-31T08:11:49.253Z,13.81
2023-03-31T08:12:22.710Z,13.82
2023-03-31T08:12:56.399Z,13.81
2023-03-31T08:13:29.723Z,13.82
2023-03-31T08:14:03.067Z,13.81
2023-03-31T08:14:40.996Z,13.83
2023-03-31T08:15:14.826Z,13.83
2023-03-31T08:15:48.217Z,13.84
2023-03-31T08:16:21.841Z,13.85
2023-03-31T08:16:55.799Z,13.86
2023-03-31T08:17:29.122Z,13.88
2023-03-31T08:18:04.523Z,13.89
2023-03-31T08:18:37.888Z,13.91
2023-03-31T08:19:11.380Z,13.92
2023-03-31T08:19:44.877Z,13.92
2023-03-31T08:20:18.449Z,13.93
2023-03-31T08:20:51.560Z,13.93
2023-03-31T08:21:24.901Z,13.95
2023-03-31T08:21:58.391Z,13.96
2023-03-31T08:22:31.709Z,13.98
2023-03-31T08:23:09.194Z,14.01
2023-03-31T08:23:42.973Z,14.03
2023-03-31T08:24:16.349Z,14.06
2023-03-31T08:24:49.713Z,14.07
2023-03-31T08:25:24.255Z,14.09
2023-03-31T08:26:17.839Z,14.12
2023-03-31T08:26:51.620Z,14.14
2023-03-31T08:27:26.383Z,14.16
2023-03-31T08:27:59.725Z,14.20
2023-03-31T08:28:33.204Z,14.23
2023-03-31T08:29:06.967Z,14.27
2023-03-31T08:29:40.229Z,14.31
2023-03-31T08:30:14.235Z,14.33
2023-03-31T08:30:47.631Z,14.36
2023-03-31T08:31:26.744Z,14.41
2023-03-31T08:32:01.073Z,14.47
2023-03-31T08:32:35.389Z,14.53
2023-03-31T08:33:09.020Z,14.59
2023-03-31T08:33:42.592Z,14.65
2023-03-31T08:34:15.823Z,14.71
2023-03-31T08:34:49.185Z,14.76
2023-03-31T08:35:22.681Z,14.79
2023-03-31T08:35:56.230Z,14.81
2023-03-31T08:36:29.744Z,14.82
2023-03-31T08:37:04.518Z,14.83
2023-03-31T08:37:39.194Z,14.82
2023-03-31T08:38:12.859Z,14.83
2023-03-31T08:38:46.431Z,14.84
2023-03-31T08:39:19.625Z,14.82
2023-03-31T08:39:53.008Z,14.81
2023-03-31T08:40:28.961Z,14.79
2023-03-31T08:41:03.123Z,14.78
2023-03-31T08:42:03.469Z,14.77
2023-03-31T08:42:45.266Z,14.76
2023-03-31T08:43:27.870Z,14.77
2023-03-31T08:44:05.522Z,14.81
2023-03-31T08:44:54.460Z,14.85
2023-03-31T08:45:36.738Z,14.86
2023-03-31T08:46:16.049Z,14.86
2023-03-31T08:46:52.892Z,14.87
2023-03-31T08:47:30.018Z,14.85
2023-03-31T08:48:26.540Z,14.84
2023-03-31T08:49:01.580Z,14.82
2023-03-31T08:49:47.971Z,14.82
2023-03-31T08:50:25.740Z,14.81
2023-03-31T08:51:06.799Z,14.81
2023-03-31T08:51:44.068Z,14.81
2023-03-31T08:52:24.121Z,14.81
2023-03-31T08:53:16.663Z,14.81
2023-03-31T08:54:08.279Z,14.80
2023-03-31T08:54:47.550Z,14.77
2023-03-31T08:55:27.517Z,14.77
2023-03-31T08:56:01.759Z,14.76
2023-03-31T08:56:39.485Z,14.77
2023-03-31T08:57:31.932Z,14.76
2023-03-31T08:58:31.215Z,14.74
2023-03-31T08:59:04.807Z,14.71
2023-03-31T08:59:39.319Z,14.71
2023-03-31T09:00:19.024Z,14.72
2023-03-31T09:01:04.564Z,14.75
2023-03-31T09:02:04.722Z,14.80
2023-03-31T09:02:49.013Z,14.84
2023-03-31T09:04:08.257Z,14.86
2023-03-31T09:05:02.599Z,14.83
2023-03-31T09:05:59.975Z,14.82
2023-03-31T09:06:44.461Z,14.81
2023-03-31T09:08:03.559Z,14.83
2023-03-31T09:08:39.345Z,14.82
2023-03-31T09:09:31.136Z,14.85
2023-03-31T09:10:13.248Z,14.86
2023-03-31T09:11:00.138Z,14.87
2023-03-31T09:11:42.765Z,14.87
2023-03-31T09:12:51.293Z,14.88
2023-03-31T09:13:45.267Z,14.90
2023-03-31T09:14:33.078Z,14.90
2023-03-31T09:15:17.955Z,14.92
2023-03-31T09:15:56.136Z,14.93
2023-03-31T09:16:57.210Z,14.95
2023-03-31T09:17:46.588Z,14.96
2023-03-31T09:18:29.342Z,14.97
2023-03-31T09:19:03.613Z,15.00
2023-03-31T09:19:41.941Z,15.01
2023-03-31T09:20:23.466Z,15.03
2023-03-31T09:21:14.522Z,15.04
2023-03-31T09:21:53.208Z,15.06
2023-03-31T09:22:31.770Z,15.07
2023-03-31T09:23:33.553Z,15.09
2023-03-31T09:24:09.820Z,15.11
2023-03-31T09:25:10.568Z,15.12
2023-03-31T09:25:46.072Z,15.15
2023-03-31T09:26:28.870Z,15.17
2023-03-31T09:27:13.137Z,15.20
2023-03-31T09:27:48.002Z,15.22
2023-03-31T09:28:27.467Z,15.24
2023-03-31T09:29:07.007Z,15.26
2023-03-31T09:30:01.917Z,15.27
2023-03-31T09:30:38.364Z,15.29
2023-03-31T09:31:20.071Z,15.31
2023-03-31T09:31:54.806Z,15.33
2023-03-31T09:32:32.961Z,15.36
2023-03-31T09:33:17.820Z,15.39
2023-03-31T09:33:55.831Z,15.42
2023-03-31T09:34:32.489Z,15.44
2023-03-31T09:35:22.066Z,15.47
2023-03-31T09:35:55.558Z,15.51
2023-03-31T09:36:29.159Z,15.54
2023-03-31T09:37:02.842Z,15.58
2023-03-31T09:37:36.227Z,15.61
2023-03-31T09:38:14.232Z,15.63
2023-03-31T09:38:48.561Z,15.67
2023-03-31T09:39:22.263Z,15.70
2023-03-31T09:39:55.689Z,15.73
2023-03-31T09:40:30.010Z,15.76
2023-03-31T09:41:05.697Z,15.79
2023-03-31T09:41:42.905Z,15.83
2023-03-31T09:42:16.492Z,15.86
2023-03-31T09:42:57.290Z,15.88
2023-03-31T09:43:32.165Z,15.92
2023-03-31T09:44:07.105Z,15.91
2023-03-31T09:44:44.882Z,15.93
2023-03-31T09:45:20.354Z,15.96
2023-03-31T09:46:08.587Z,15.97
2023-03-31T09:46:43.246Z,15.94
2023-03-31T09:47:39.318Z,15.88
2023-03-31T09:48:17.190Z,15.75
2023-03-31T09:49:18.404Z,15.64
2023-03-31T09:49:53.716Z,15.47
2023-03-31T09:50:30.492Z,15.38
2023-03-31T09:51:07.398Z,15.31
2023-03-31T09:51:46.569Z,15.23
2023-03-31T09:52:37.652Z,15.15
2023-03-31T09:53:19.655Z,15.08
2023-03-31T09:53:56.113Z,15.03
2023-03-31T09:54:37.384Z,14.98
2023-03-31T09:55:28.432Z,14.95
2023-03-31T09:56:09.023Z,14.90
2023-03-31T09:56:42.565Z,14.88
2023-03-31T09:57:34.103Z,14.86
2023-03-31T09:58:12.541Z,14.82
2023-03-31T09:58:49.281Z,14.80
2023-03-31T09:59:31.165Z,14.79
2023-03-31T10:00:19.328Z,14.77
2023-03-31T10:01:02.872Z,14.75